createdAt,value
2024-01-27T00:00:52.178Z,95859.97
2024-01-27T00:03:19.013Z,95859.66
2024-01-27T00:05:46.172Z,95867.25
2024-01-27T00:08:12.972Z,95864.94
2024-01-27T00:10:39.693Z,95867.75
2024-01-27T00:13:06.396Z,95871.94
2024-01-27T00:15:33.367Z,95862.44
2024-01-27T00:18:00.299Z,95859.47
2024-01-27T00:20:27.492Z,95856.16
2024-01-27T00:22:54.242Z,95858.16
2024-01-27T00:25:21.024Z,95858.38
2024-01-27T00:27:47.857Z,95865.44
2024-01-27T00:30:14.912Z,95868.66
2024-01-27T00:32:41.730Z,95873.72
2024-01-27T00:35:09.795Z,95869.75
2024-01-27T00:37:36.488Z,95861.34
2024-01-27T00:40:03.203Z,95868.06
2024-01-27T00:42:30.137Z,95871.84
2024-01-27T00:44:56.885Z,95876.06
2024-01-27T00:47:24.131Z,95875.13
2024-01-27T00:49:50.972Z,95874.72
2024-01-27T00:52:17.794Z,95880.22
2024-01-27T00:54:44.496Z,95884.59
2024-01-27T00:57:11.286Z,95878.09
2024-01-27T00:59:38.150Z,95887.13
2024-01-27T01:02:04.855Z,95885.72
2024-01-27T01:04:31.973Z,95882.41
2024-01-27T01:06:59.109Z,95882.00
2024-01-27T01:09:26.026Z,95877.56
2024-01-27T01:11:52.894Z,95889.97
2024-01-27T01:14:19.634Z,95890.19
2024-01-27T01:16:46.342Z,95885.00
2024-01-27T01:19:13.057Z,95887.69
2024-01-27T01:21:39.752Z,95896.56
2024-01-27T01:24:06.533Z,95895.16
2024-01-27T01:26:33.589Z,95898.34
2024-01-27T01:29:00.285Z,95901.50
2024-01-27T01:31:27.274Z,95908.78
2024-01-27T01:33:54.420Z,95899.03
2024-01-27T01:36:21.475Z,95903.31
2024-01-27T01:38:48.295Z,95903.59
2024-01-27T01:41:15.194Z,95909.88
2024-01-27T01:43:41.906Z,95906.47
2024-01-27T01:46:09.043Z,95908.28
2024-01-27T01:48:35.892Z,95903.78
2024-01-27T01:51:03.565Z,95903.06
2024-01-27T01:53:30.487Z,95919.16
2024-01-27T01:55:57.226Z,95922.16
2024-01-27T01:58:23.934Z,95908.72
2024-01-27T02:00:50.693Z,95908.72
2024-01-27T02:03:17.543Z,95908.50
2024-01-27T02:05:44.326Z,95907.38
2024-01-27T02:08:11.186Z,95903.41
2024-01-27T02:10:38.272Z,95912.25
2024-01-27T02:13:06.854Z,95904.47
2024-01-27T02:15:33.650Z,95910.50
2024-01-27T02:18:00.525Z,95909.19
2024-01-27T02:20:27.236Z,95905.75
2024-01-27T02:22:53.956Z,95909.88
2024-01-27T02:25:20.633Z,95906.91
2024-01-27T02:27:47.395Z,95902.53
2024-01-27T02:30:14.224Z,95905.81
2024-01-27T02:32:41.067Z,95917.38
2024-01-27T02:35:09.392Z,95920.19
2024-01-27T02:37:36.160Z,95917.28
2024-01-27T02:40:02.928Z,95917.59
2024-01-27T02:42:29.807Z,95921.94
2024-01-27T02:44:56.858Z,95919.81
2024-01-27T02:47:23.665Z,95920.59
2024-01-27T02:49:50.526Z,95918.59
2024-01-27T02:52:17.442Z,95926.19
2024-01-27T02:54:44.124Z,95926.75
2024-01-27T02:57:14.254Z,95920.91
2024-01-27T02:59:41.414Z,95923.66
2024-01-27T03:02:08.192Z,95926.84
2024-01-27T03:04:35.276Z,95925.84
2024-01-27T03:07:02.296Z,95931.75
2024-01-27T03:09:29.122Z,95930.06
2024-01-27T03:11:55.930Z,95944.56
2024-01-27T03:14:22.749Z,95944.13
2024-01-27T03:16:49.429Z,95951.59
2024-01-27T03:19:16.187Z,95947.03
2024-01-27T03:21:43.052Z,95944.50
2024-01-27T03:24:09.836Z,95945.81
2024-01-27T03:26:36.653Z,95948.13
2024-01-27T03:29:03.326Z,95951.59
2024-01-27T03:31:34.245Z,95951.56
2024-01-27T03:34:01.650Z,95958.53
2024-01-27T03:36:28.945Z,95955.34
2024-01-27T03:38:59.089Z,95942.78
2024-01-27T03:41:25.951Z,95946.50
2024-01-27T03:43:52.633Z,95954.50
2024-01-27T03:46:19.345Z,95956.34
2024-01-27T03:48:46.579Z,95953.22
2024-01-27T03:51:13.813Z,95959.97
2024-01-27T03:53:40.503Z,95964.97
2024-01-27T03:56:07.522Z,95968.38
2024-01-27T03:58:34.430Z,95970.22
2024-01-27T04:01:02.020Z,95968.34
2024-01-27T04:03:28.734Z,95970.56
2024-01-27T04:05:55.687Z,95967.44
2024-01-27T04:08:22.486Z,95964.75
2024-01-27T04:10:49.221Z,95978.56
2024-01-27T04:13:15.890Z,95971.59
2024-01-27T04:15:42.703Z,95975.13
2024-01-27T04:18:10.883Z,95977.22
2024-01-27T04:20:37.726Z,95981.75
2024-01-27T04:23:05.179Z,95984.22
2024-01-27T04:25:31.924Z,95985.59
2024-01-27T04:27:59.180Z,95987.03
2024-01-27T04:30:25.896Z,95991.34
2024-01-27T04:32:53.229Z,96001.50
2024-01-27T04:35:20.156Z,96000.88
2024-01-27T04:37:46.936Z,95996.41
2024-01-27T04:40:13.700Z,95991.59
2024-01-27T04:42:40.902Z,95994.38
2024-01-27T04:45:08.630Z,95995.94
2024-01-27T04:47:35.741Z,95984.66
2024-01-27T04:50:02.668Z,95990.88
2024-01-27T04:52:29.394Z,95990.03
2024-01-27T04:54:56.084Z,95994.38
2024-01-27T04:57:53.406Z,95981.66
2024-01-27T05:00:20.630Z,95991.69
2024-01-27T05:02:47.393Z,95991.47
2024-01-27T05:05:14.670Z,95992.84
2024-01-27T05:07:41.498Z,95986.63
2024-01-27T05:10:12.236Z,95984.78
2024-01-27T05:12:39.104Z,95971.66
2024-01-27T05:15:06.269Z,95982.41
2024-01-27T05:17:33.636Z,95980.81
2024-01-27T05:20:00.474Z,95972.47
2024-01-27T05:22:27.230Z,95977.91
2024-01-27T05:24:53.898Z,95975.81
2024-01-27T05:27:20.592Z,95980.59
2024-01-27T05:29:47.302Z,95974.72
2024-01-27T05:32:14.099Z,95977.69
2024-01-27T05:34:41.073Z,95975.22
2024-01-27T05:37:08.501Z,95971.47
2024-01-27T05:39:35.285Z,95974.16
2024-01-27T05:42:02.112Z,95968.88
2024-01-27T05:44:28.887Z,95974.25
2024-01-27T05:46:55.571Z,95971.75
2024-01-27T05:49:22.462Z,95975.53
2024-01-27T05:51:51.340Z,95969.94
2024-01-27T05:54:18.154Z,95969.41
2024-01-27T05:56:44.920Z,95979.09
2024-01-27T05:59:11.653Z,95973.13
2024-01-27T06:01:38.720Z,95978.50
2024-01-27T06:04:05.624Z,95985.75
2024-01-27T06:06:32.567Z,95989.84
2024-01-27T06:08:59.376Z,95991.47
2024-01-27T06:11:27.098Z,96004.72
2024-01-27T06:13:53.831Z,96009.78
2024-01-27T06:16:20.603Z,96011.38
2024-01-27T06:18:47.569Z,96018.34
2024-01-27T06:21:14.765Z,96006.16
2024-01-27T06:23:41.765Z,96009.38
2024-01-27T06:26:09.002Z,96005.88
2024-01-27T06:28:36.286Z,95999.31
2024-01-27T06:31:05.073Z,96006.00
2024-01-27T06:33:32.795Z,96011.97
2024-01-27T06:35:59.666Z,96013.00
2024-01-27T06:38:27.583Z,96013.84
2024-01-27T06:40:54.693Z,96010.16
2024-01-27T06:43:21.658Z,96018.50
2024-01-27T06:45:48.386Z,96015.25
2024-01-27T06:48:15.381Z,96011.25
2024-01-27T06:50:42.169Z,96009.06
2024-01-27T06:53:09.115Z,96010.41
2024-01-27T06:55:35.769Z,96006.66
2024-01-27T06:58:02.603Z,96018.22
2024-01-27T07:00:29.380Z,96011.47
2024-01-27T07:02:59.179Z,96015.53
2024-01-27T07:05:26.164Z,96018.53
2024-01-27T07:07:53.178Z,96010.50
2024-01-27T07:10:19.847Z,96002.16
2024-01-27T07:12:49.482Z,95998.16
2024-01-27T07:15:16.255Z,96002.94
2024-01-27T07:17:43.053Z,95999.34
2024-01-27T07:20:10.415Z,96008.56
2024-01-27T07:22:37.776Z,96010.75
2024-01-27T07:25:04.910Z,95996.50
2024-01-27T07:27:32.043Z,96005.28
2024-01-27T07:30:01.009Z,96013.16
2024-01-27T07:32:27.727Z,96011.00
2024-01-27T07:34:57.209Z,96023.44
2024-01-27T07:37:23.955Z,96018.00
2024-01-27T07:39:53.858Z,96015.13
2024-01-27T07:42:20.641Z,96023.97
2024-01-27T07:44:47.394Z,96019.94
2024-01-27T07:47:14.073Z,96011.97
2024-01-27T07:49:40.894Z,96004.38
2024-01-27T07:52:07.632Z,95989.50
2024-01-27T07:54:40.416Z,95988.13
2024-01-27T07:57:07.732Z,95994.88
2024-01-27T07:59:34.513Z,96000.84
2024-01-27T08:02:01.485Z,96008.34
2024-01-27T08:04:28.329Z,96011.19
2024-01-27T08:06:55.322Z,96007.63
2024-01-27T08:09:22.303Z,96009.50
2024-01-27T08:11:54.187Z,96013.44
2024-01-27T08:14:22.163Z,96008.97
2024-01-27T08:16:48.998Z,96018.94
2024-01-27T08:19:21.517Z,96034.69
2024-01-27T08:21:48.699Z,96038.84
2024-01-27T08:24:15.559Z,96024.97
2024-01-27T08:26:43.520Z,96019.81
2024-01-27T08:29:10.773Z,96012.75
2024-01-27T08:31:39.349Z,96007.06
2024-01-27T08:34:06.435Z,96010.13
2024-01-27T08:36:35.090Z,96011.81
2024-01-27T08:39:02.072Z,96009.19
2024-01-27T08:41:29.990Z,96010.50
2024-01-27T08:43:56.950Z,96016.75
2024-01-27T08:46:23.650Z,96018.63
2024-01-27T08:48:50.503Z,96007.63
2024-01-27T08:51:18.122Z,96011.03
2024-01-27T08:53:49.828Z,96012.84
2024-01-27T08:56:18.616Z,96011.94
2024-01-27T08:58:45.906Z,96018.50
2024-01-27T09:01:15.971Z,96018.41
2024-01-27T09:03:42.988Z,96031.09
2024-01-27T09:06:09.950Z,96017.88
2024-01-27T09:08:37.396Z,96016.03
2024-01-27T09:11:04.400Z,96009.63
2024-01-27T09:13:31.286Z,96012.25
2024-01-27T09:15:58.659Z,96017.72
2024-01-27T09:18:27.973Z,96019.91
2024-01-27T09:20:55.288Z,96015.16
2024-01-27T09:23:22.331Z,96005.41
2024-01-27T09:25:49.057Z,96007.38
2024-01-27T09:28:17.336Z,96008.47
2024-01-27T09:30:44.386Z,96012.00
2024-01-27T09:33:11.922Z,96012.22
2024-01-27T09:35:38.777Z,96012.56
2024-01-27T09:38:07.064Z,96007.53
2024-01-27T09:40:33.871Z,96004.13
2024-01-27T09:43:01.811Z,96019.69
2024-01-27T09:45:29.064Z,96018.25
2024-01-27T09:47:59.303Z,96024.06
2024-01-27T09:50:26.249Z,96021.06
2024-01-27T09:52:54.401Z,96024.06
2024-01-27T09:55:22.594Z,96020.78
2024-01-27T09:57:49.833Z,96016.72
2024-01-27T10:00:18.087Z,96014.84
2024-01-27T10:02:47.982Z,96002.13
2024-01-27T10:05:16.135Z,95996.00
2024-01-27T10:07:43.325Z,95997.69
2024-01-27T10:10:10.596Z,96003.03
2024-01-27T10:12:43.684Z,95996.59
2024-01-27T10:15:23.785Z,95994.50
2024-01-27T10:17:51.346Z,95987.72
2024-01-27T10:20:20.286Z,95985.00
2024-01-27T10:22:47.864Z,95983.19
2024-01-27T10:25:15.914Z,95978.31
2024-01-27T10:27:43.184Z,95975.09
2024-01-27T10:30:18.406Z,95974.59
2024-01-27T10:32:56.124Z,95974.09
2024-01-27T10:35:22.858Z,95971.41
2024-01-27T10:37:56.732Z,95978.41
2024-01-27T10:40:25.657Z,95987.28
2024-01-27T10:42:58.280Z,95993.78
2024-01-27T10:45:25.484Z,95997.81
2024-01-27T10:47:52.899Z,95987.06
2024-01-27T10:50:19.958Z,95978.13
2024-01-27T10:52:48.689Z,95975.63
2024-01-27T10:55:17.029Z,95974.56
2024-01-27T10:57:45.345Z,95971.56
2024-01-27T11:00:13.811Z,95964.75
2024-01-27T11:02:42.746Z,95966.84
2024-01-27T11:05:12.047Z,95960.84
2024-01-27T11:07:40.656Z,95951.38
2024-01-27T11:10:08.961Z,95941.78
2024-01-27T11:12:36.589Z,95941.94
2024-01-27T11:15:04.810Z,95932.69
2024-01-27T11:17:42.892Z,95933.94
2024-01-27T11:20:12.458Z,95935.97
2024-01-27T11:22:40.547Z,95929.28
2024-01-27T11:25:14.799Z,95931.03
2024-01-27T11:27:42.380Z,95929.91
2024-01-27T11:30:30.005Z,95932.53
2024-01-27T11:33:02.640Z,95939.19
2024-01-27T11:35:29.518Z,95932.88
2024-01-27T11:37:56.569Z,95938.41
2024-01-27T11:40:23.468Z,95938.94
2024-01-27T11:43:01.166Z,95940.44
2024-01-27T11:45:31.357Z,95933.91
2024-01-27T11:47:58.351Z,95933.00
2024-01-27T11:50:26.005Z,95927.75
2024-01-27T11:52:52.766Z,95925.69
2024-01-27T11:55:20.370Z,95919.59
2024-01-27T11:57:47.209Z,95926.31
2024-01-27T12:00:14.394Z,95921.22
2024-01-27T12:02:42.198Z,95920.41
2024-01-27T12:05:13.479Z,95924.59
2024-01-27T12:07:40.368Z,95922.03
2024-01-27T12:10:08.704Z,95923.44
2024-01-27T12:12:35.458Z,95919.13
2024-01-27T12:15:03.695Z,95918.00
2024-01-27T12:17:32.174Z,95914.97
2024-01-27T12:19:59.070Z,95915.28
2024-01-27T12:22:30.649Z,95906.97
2024-01-27T12:25:12.475Z,95904.88
2024-01-27T12:27:40.210Z,95895.44
2024-01-27T12:30:07.712Z,95891.66
2024-01-27T12:32:34.657Z,95889.44
2024-01-27T12:35:08.811Z,95889.47
2024-01-27T12:37:36.337Z,95889.88
2024-01-27T12:40:03.415Z,95887.50
2024-01-27T12:42:36.109Z,95881.41
2024-01-27T12:45:02.916Z,95881.72
2024-01-27T12:47:29.879Z,95882.31
2024-01-27T12:50:01.366Z,95880.53
2024-01-27T12:52:28.482Z,95880.13
2024-01-27T12:54:58.693Z,95879.72
2024-01-27T12:57:32.541Z,95874.81
2024-01-27T12:59:59.349Z,95864.06
2024-01-27T13:02:27.298Z,95863.47
2024-01-27T13:05:07.140Z,95862.34
2024-01-27T13:07:36.170Z,95857.97
2024-01-27T13:10:03.671Z,95855.91
2024-01-27T13:12:38.709Z,95846.72
2024-01-27T13:15:13.297Z,95847.81
2024-01-27T13:17:45.961Z,95843.50
2024-01-27T13:20:17.152Z,95838.44
2024-01-27T13:22:46.431Z,95838.88
2024-01-27T13:25:13.270Z,95831.59
2024-01-27T13:27:39.936Z,95829.22
2024-01-27T13:30:07.449Z,95826.97
2024-01-27T13:32:37.421Z,95831.06
2024-01-27T13:35:05.369Z,95822.78
2024-01-27T13:37:35.158Z,95826.88
2024-01-27T13:40:05.584Z,95825.97
2024-01-27T13:42:35.569Z,95818.91
2024-01-27T13:45:02.769Z,95820.84
2024-01-27T13:47:29.667Z,95825.84
2024-01-27T13:49:59.277Z,95828.56
2024-01-27T13:52:26.282Z,95825.41
2024-01-27T13:54:53.922Z,95815.38
2024-01-27T13:57:22.240Z,95821.19
2024-01-27T13:59:59.083Z,95812.34
2024-01-27T14:02:32.265Z,95812.47
2024-01-27T14:05:02.443Z,95812.22
2024-01-27T14:07:33.401Z,95815.94
2024-01-27T14:10:00.963Z,95814.91
2024-01-27T14:12:30.151Z,95804.59
2024-01-27T14:15:12.708Z,95804.25
2024-01-27T14:17:39.471Z,95808.34
2024-01-27T14:20:07.139Z,95802.53
2024-01-27T14:22:34.014Z,95796.38
2024-01-27T14:25:00.730Z,95802.59
2024-01-27T14:27:27.473Z,95803.97
2024-01-27T14:29:58.244Z,95808.16
2024-01-27T14:32:25.011Z,95805.19
2024-01-27T14:34:51.707Z,95813.69
2024-01-27T14:37:18.658Z,95813.78
2024-01-27T14:39:47.078Z,95814.63
2024-01-27T14:42:14.333Z,95819.63
2024-01-27T14:44:41.697Z,95820.38
2024-01-27T14:47:09.395Z,95815.63
2024-01-27T14:49:38.685Z,95823.16
2024-01-27T14:52:08.271Z,95823.81
2024-01-27T14:54:38.332Z,95826.72
2024-01-27T14:57:06.133Z,95822.44
2024-01-27T14:59:32.931Z,95813.66
2024-01-27T15:01:59.632Z,95824.19
2024-01-27T15:04:28.057Z,95826.25
2024-01-27T15:06:56.435Z,95828.81
2024-01-27T15:09:23.933Z,95825.94
2024-01-27T15:11:52.618Z,95828.00
2024-01-27T15:14:19.810Z,95828.66
2024-01-27T15:16:47.557Z,95835.03
2024-01-27T15:19:14.717Z,95836.59
2024-01-27T15:21:41.532Z,95840.91
2024-01-27T15:24:08.477Z,95824.31
2024-01-27T15:26:35.328Z,95831.47
2024-01-27T15:29:02.124Z,95831.47
2024-01-27T15:31:29.406Z,95836.53
2024-01-27T15:33:56.255Z,95841.13
2024-01-27T15:36:26.264Z,95836.03
2024-01-27T15:38:53.187Z,95827.09
2024-01-27T15:41:20.240Z,95832.72
2024-01-27T15:43:48.805Z,95831.91
2024-01-27T15:46:16.250Z,95845.28
2024-01-27T15:48:43.508Z,95841.28
2024-01-27T15:51:10.855Z,95850.59
2024-01-27T15:53:37.663Z,95840.16
2024-01-27T15:56:04.818Z,95832.78
2024-01-27T15:58:33.053Z,95845.38
2024-01-27T16:01:00.152Z,95842.69
2024-01-27T16:03:27.279Z,95851.41
2024-01-27T16:05:54.186Z,95846.50
2024-01-27T16:08:21.071Z,95863.44
2024-01-27T16:10:49.321Z,95857.28
2024-01-27T16:13:16.110Z,95860.00
2024-01-27T16:15:43.068Z,95864.06
2024-01-27T16:18:10.003Z,95862.34
2024-01-27T16:20:36.787Z,95856.94
2024-01-27T16:23:03.504Z,95865.97
2024-01-27T16:25:30.204Z,95872.59
2024-01-27T16:27:58.682Z,95867.00
2024-01-27T16:30:26.042Z,95863.41
2024-01-27T16:32:52.921Z,95858.22
2024-01-27T16:35:20.728Z,95865.75
2024-01-27T16:37:47.460Z,95872.03
2024-01-27T16:40:14.169Z,95867.84
2024-01-27T16:42:40.858Z,95874.16
2024-01-27T16:45:08.225Z,95877.47
2024-01-27T16:47:35.324Z,95871.47
2024-01-27T16:50:04.890Z,95879.66
2024-01-27T16:52:32.013Z,95879.78
2024-01-27T16:54:58.810Z,95886.75
2024-01-27T16:57:25.736Z,95887.56
2024-01-27T16:59:54.099Z,95886.88
2024-01-27T17:02:20.888Z,95891.03
2024-01-27T17:04:50.921Z,95889.84
2024-01-27T17:07:18.237Z,95882.53
2024-01-27T17:09:45.311Z,95891.53
2024-01-27T17:12:12.870Z,95897.81
2024-01-27T17:14:41.246Z,95889.31
2024-01-27T17:17:08.522Z,95893.31
2024-01-27T17:19:37.026Z,95883.22
2024-01-27T17:22:04.884Z,95891.53
2024-01-27T17:24:32.003Z,95890.53
2024-01-27T17:27:00.720Z,95887.91
2024-01-27T17:29:27.417Z,95887.97
2024-01-27T17:31:54.250Z,95891.38
2024-01-27T17:34:22.382Z,95887.75
2024-01-27T17:36:49.252Z,95889.28
2024-01-27T17:39:17.251Z,95894.75
2024-01-27T17:41:44.975Z,95899.94
2024-01-27T17:44:11.967Z,95891.38
2024-01-27T17:46:38.901Z,95887.34
2024-01-27T17:49:08.861Z,95887.72
2024-01-27T17:51:35.951Z,95901.06
2024-01-27T17:54:05.981Z,95891.09
2024-01-27T17:56:32.933Z,95902.31
2024-01-27T17:58:59.852Z,95898.88
2024-01-27T18:01:26.625Z,95896.19
2024-01-27T18:03:53.582Z,95900.84
2024-01-27T18:06:20.548Z,95908.25
2024-01-27T18:08:47.359Z,95905.81
2024-01-27T18:11:14.245Z,95909.03
2024-01-27T18:13:47.351Z,95910.41
2024-01-27T18:16:17.278Z,95906.63
2024-01-27T18:18:44.133Z,95912.59
2024-01-27T18:21:11.038Z,95914.72
2024-01-27T18:23:38.299Z,95908.59
2024-01-27T18:26:05.054Z,95905.81
2024-01-27T18:28:33.243Z,95909.13
2024-01-27T18:31:00.063Z,95921.84
2024-01-27T18:33:26.990Z,95924.56
2024-01-27T18:35:55.535Z,95917.25
2024-01-27T18:38:22.238Z,95914.56
2024-01-27T18:40:48.971Z,95907.38
2024-01-27T18:43:15.657Z,95911.38
2024-01-27T18:45:42.849Z,95909.47
2024-01-27T18:48:09.906Z,95905.81
2024-01-27T18:50:37.981Z,95912.38
2024-01-27T18:53:05.368Z,95905.69
2024-01-27T18:55:39.053Z,95904.66
2024-01-27T18:58:08.041Z,95911.66
2024-01-27T19:00:37.034Z,95910.50
2024-01-27T19:03:08.049Z,95911.88
2024-01-27T19:05:35.412Z,95908.97
2024-01-27T19:08:02.644Z,95909.84
2024-01-27T19:10:29.449Z,95902.63
2024-01-27T19:12:56.243Z,95903.41
2024-01-27T19:15:23.062Z,95899.84
2024-01-27T19:17:50.218Z,95900.63
2024-01-27T19:20:17.129Z,95912.88
2024-01-27T19:22:47.611Z,95911.56
2024-01-27T19:25:15.797Z,95913.88
2024-01-27T19:27:42.912Z,95915.69
2024-01-27T19:30:10.385Z,95917.28
2024-01-27T19:32:37.169Z,95909.63
2024-01-27T19:35:04.830Z,95908.00
2024-01-27T19:37:31.829Z,95905.53
2024-01-27T19:39:58.516Z,95902.69
2024-01-27T19:42:25.364Z,95905.38
2024-01-27T19:44:52.248Z,95896.22
2024-01-27T19:47:18.944Z,95891.38
2024-01-27T19:49:45.918Z,95895.44
2024-01-27T19:52:12.650Z,95887.50
2024-01-27T19:54:40.094Z,95889.97
2024-01-27T19:57:07.104Z,95887.06
2024-01-27T19:59:33.822Z,95883.22
2024-01-27T20:02:00.494Z,95880.59
2024-01-27T20:04:27.815Z,95880.38
2024-01-27T20:06:58.879Z,95877.94
2024-01-27T20:09:28.260Z,95875.25
2024-01-27T20:11:55.736Z,95881.97
2024-01-27T20:14:23.629Z,95876.63
2024-01-27T20:16:51.299Z,95869.72
2024-01-27T20:19:18.899Z,95879.97
2024-01-27T20:21:46.293Z,95869.78
2024-01-27T20:24:13.662Z,95869.72
2024-01-27T20:26:43.499Z,95867.25
2024-01-27T20:29:10.840Z,95861.88
2024-01-27T20:31:37.814Z,95861.66
2024-01-27T20:34:05.938Z,95861.13
2024-01-27T20:36:32.939Z,95857.13
2024-01-27T20:39:01.200Z,95853.34
2024-01-27T20:41:28.093Z,95852.81
2024-01-27T20:43:54.998Z,95849.47
2024-01-27T20:46:21.792Z,95847.59
2024-01-27T20:48:48.713Z,95848.06
2024-01-27T20:51:16.087Z,95848.66
2024-01-27T20:53:42.882Z,95852.09
2024-01-27T20:56:10.688Z,95856.22
2024-01-27T20:58:38.242Z,95855.34
2024-01-27T21:01:05.776Z,95853.75
2024-01-27T21:03:32.702Z,95850.38
2024-01-27T21:06:00.599Z,95859.19
2024-01-27T21:08:30.797Z,95857.81
2024-01-27T21:10:57.627Z,95850.03
2024-01-27T21:13:27.092Z,95850.59
2024-01-27T21:15:54.221Z,95855.91
2024-01-27T21:18:21.366Z,95853.97
2024-01-27T21:20:48.660Z,95853.91
2024-01-27T21:23:15.806Z,95852.38
2024-01-27T21:25:42.850Z,95846.72
2024-01-27T21:28:09.748Z,95847.22
2024-01-27T21:30:37.005Z,95842.03
2024-01-27T21:33:04.491Z,95845.44
2024-01-27T21:35:34.198Z,95844.06
2024-01-27T21:38:01.376Z,95846.06
2024-01-27T21:40:28.182Z,95843.09
2024-01-27T21:42:55.091Z,95840.13
2024-01-27T21:45:22.222Z,95832.56
2024-01-27T21:47:49.487Z,95834.22
2024-01-27T21:50:16.590Z,95836.84
2024-01-27T21:52:43.399Z,95837.94
2024-01-27T21:55:10.260Z,95835.59
2024-01-27T21:57:37.316Z,95841.78
2024-01-27T22:00:05.046Z,95838.28
2024-01-27T22:02:41.747Z,95839.09
2024-01-27T22:05:11.667Z,95835.81
2024-01-27T22:07:38.911Z,95833.75
2024-01-27T22:10:06.157Z,95835.16
2024-01-27T22:12:32.923Z,95829.19
2024-01-27T22:15:00.222Z,95828.34
2024-01-27T22:17:27.490Z,95830.84
2024-01-27T22:19:54.401Z,95823.94
2024-01-27T22:22:21.114Z,95824.75
2024-01-27T22:24:48.006Z,95827.69
2024-01-27T22:27:15.092Z,95828.75
2024-01-27T22:30:03.845Z,95823.59
2024-01-27T22:32:33.489Z,95818.44
2024-01-27T22:35:00.425Z,95812.47
2024-01-27T22:37:27.576Z,95820.53
2024-01-27T22:39:55.453Z,95812.97
2024-01-27T22:42:25.359Z,95811.97
2024-01-27T22:44:52.475Z,95805.47
2024-01-27T22:47:19.217Z,95815.97
2024-01-27T22:49:48.553Z,95807.38
2024-01-27T22:52:15.921Z,95800.91
2024-01-27T22:54:49.444Z,95803.81
2024-01-27T22:57:33.833Z,95800.63
2024-01-27T23:00:34.716Z,95802.00
2024-01-27T23:03:05.042Z,95795.00
2024-01-27T23:05:33.894Z,95794.72
2024-01-27T23:08:03.504Z,95783.16
2024-01-27T23:10:34.199Z,95781.78
2024-01-27T23:13:04.352Z,95782.06
2024-01-27T23:15:31.453Z,95791.16
2024-01-27T23:17:58.297Z,95782.84
2024-01-27T23:20:25.558Z,95780.97
2024-01-27T23:22:52.216Z,95776.38
2024-01-27T23:25:18.958Z,95779.22
2024-01-27T23:27:45.762Z,95773.72
2024-01-27T23:30:14.946Z,95772.91
2024-01-27T23:32:42.519Z,95774.16
2024-01-27T23:35:09.950Z,95768.94
2024-01-27T23:37:38.968Z,95774.81
2024-01-27T23:40:16.831Z,95764.25
2024-01-27T23:42:44.677Z,95768.41
2024-01-27T23:45:11.646Z,95763.97
2024-01-27T23:47:38.373Z,95770.97
2024-01-27T23:50:06.173Z,95766.94
2024-01-27T23:52:36.644Z,95757.44
2024-01-27T23:55:04.356Z,95757.13
2024-01-27T23:57:31.122Z,95752.03
2024-01-27T23:59:59.306Z,95749.78
